Terminal Aerodrome Forecast
Issued by NWS Melbourne, FL

Home | Current Version | Previous Version | Text Only | Print | Product List | Glossary On
Versions: 1 2 3 4 5 6 7 8 9 10 11 12 13 14
000
FTUS42 KMLB 231143
TAFDAB
TAF
KDAB 231143Z 2312/2412 06014G24KT P6SM VCSH SCT015 BKN025 OVC035
      TEMPO 2312/2315 4SM -SHRA BKN015
     FM231500 05012G18KT P6SM VCSH SCT020 OVC035
      TEMPO 2315/2318 5SM SHRA BKN020
     FM231900 03015G25KT P6SM SCT015 BKN040
     FM240900 01008KT P6SM BKN015=

USA.gov is the U.S. government's official web portal to all federal, state and local government web resources and services.